sensor_id;sensor_type;location;lat;lon;timestamp;pressure;altitude;pressure_sealevel;temperature;humidity
67373;BME280;54257;54.496;18.412;2022-07-10T00:01:46;99562.89;;;14.04;71.55
67373;BME280;54257;54.496;18.412;2022-07-10T00:04:13;99562.73;;;14.02;71.70
67373;BME280;54257;54.496;18.412;2022-07-10T00:06:41;99567.35;;;14.04;71.02
67373;BME280;54257;54.496;18.412;2022-07-10T00:09:12;99568.19;;;14.07;70.99
67373;BME280;54257;54.496;18.412;2022-07-10T00:11:41;99567.67;;;14.10;71.30
67373;BME280;54257;54.496;18.412;2022-07-10T00:14:08;99561.15;;;14.09;71.39
67373;BME280;54257;54.496;18.412;2022-07-10T00:16:35;99557.73;;;14.05;71.46
67373;BME280;54257;54.496;18.412;2022-07-10T00:19:03;99554.14;;;14.02;71.69
67373;BME280;54257;54.496;18.412;2022-07-10T00:21:31;99555.34;;;13.98;71.69
67373;BME280;54257;54.496;18.412;2022-07-10T00:23:59;99551.25;;;13.93;71.71
67373;BME280;54257;54.496;18.412;2022-07-10T00:26:26;99546.27;;;13.90;72.10
67373;BME280;54257;54.496;18.412;2022-07-10T00:28:53;99544.91;;;13.88;72.17
67373;BME280;54257;54.496;18.412;2022-07-10T00:31:21;99540.98;;;13.86;72.27
67373;BME280;54257;54.496;18.412;2022-07-10T00:33:48;99540.63;;;13.86;72.34
67373;BME280;54257;54.496;18.412;2022-07-10T00:36:15;99535.14;;;13.86;72.46
67373;BME280;54257;54.496;18.412;2022-07-10T00:38:43;99530.34;;;13.86;72.63
67373;BME280;54257;54.496;18.412;2022-07-10T00:41:10;99526.73;;;13.85;72.40
67373;BME280;54257;54.496;18.412;2022-07-10T00:43:57;99524.84;;;13.85;72.45
67373;BME280;54257;54.496;18.412;2022-07-10T00:46:28;99518.84;;;13.84;72.51
67373;BME280;54257;54.496;18.412;2022-07-10T00:48:56;99514.20;;;13.82;72.67
67373;BME280;54257;54.496;18.412;2022-07-10T00:51:26;99510.28;;;13.75;72.54
67373;BME280;54257;54.496;18.412;2022-07-10T00:53:56;99509.29;;;13.67;72.68
67373;BME280;54257;54.496;18.412;2022-07-10T00:56:24;99510.84;;;13.59;72.78
67373;BME280;54257;54.496;18.412;2022-07-10T00:58:52;99505.89;;;13.53;72.44
67373;BME280;54257;54.496;18.412;2022-07-10T01:01:20;99502.81;;;13.46;72.77
67373;BME280;54257;54.496;18.412;2022-07-10T01:03:50;99507.81;;;13.38;72.98
67373;BME280;54257;54.496;18.412;2022-07-10T01:06:18;99507.84;;;13.30;73.05
67373;BME280;54257;54.496;18.412;2022-07-10T01:08:46;99507.48;;;13.25;73.35
67373;BME280;54257;54.496;18.412;2022-07-10T01:11:14;99505.80;;;13.21;73.62
67373;BME280;54257;54.496;18.412;2022-07-10T01:13:44;99501.67;;;13.22;73.45
67373;BME280;54257;54.496;18.412;2022-07-10T01:16:12;99495.66;;;13.24;73.68
67373;BME280;54257;54.496;18.412;2022-07-10T01:18:40;99491.87;;;13.25;74.05
67373;BME280;54257;54.496;18.412;2022-07-10T01:21:23;99494.45;;;13.29;74.25
67373;BME280;54257;54.496;18.412;2022-07-10T01:23:51;99487.58;;;13.33;74.41
67373;BME280;54257;54.496;18.412;2022-07-10T01:26:20;99488.60;;;13.35;74.53
67373;BME280;54257;54.496;18.412;2022-07-10T01:28:49;99486.54;;;13.35;74.46
67373;BME280;54257;54.496;18.412;2022-07-10T01:31:18;99482.95;;;13.35;74.30
67373;BME280;54257;54.496;18.412;2022-07-10T01:33:46;99485.01;;;13.38;74.41
67373;BME280;54257;54.496;18.412;2022-07-10T01:36:14;99489.80;;;13.40;74.67
67373;BME280;54257;54.496;18.412;2022-07-10T01:38:43;99488.61;;;13.39;75.07
67373;BME280;54257;54.496;18.412;2022-07-10T01:41:10;99488.78;;;13.36;75.14
67373;BME280;54257;54.496;18.412;2022-07-10T01:43:39;99483.98;;;13.32;75.28
67373;BME280;54257;54.496;18.412;2022-07-10T01:46:12;99482.11;;;13.26;76.06
67373;BME280;54257;54.496;18.412;2022-07-10T01:48:39;99479.88;;;13.18;76.04
67373;BME280;54257;54.496;18.412;2022-07-10T01:51:07;99479.19;;;13.13;77.15
67373;BME280;54257;54.496;18.412;2022-07-10T01:53:36;99480.05;;;13.07;77.33
67373;BME280;54257;54.496;18.412;2022-07-10T01:56:06;99481.42;;;13.04;78.25
67373;BME280;54257;54.496;18.412;2022-07-10T01:58:34;99477.49;;;12.98;79.22
67373;BME280;54257;54.496;18.412;2022-07-10T02:01:02;99479.38;;;12.95;78.88
67373;BME280;54257;54.496;18.412;2022-07-10T02:03:30;99478.34;;;12.94;79.08
67373;BME280;54257;54.496;18.412;2022-07-10T02:06:17;99469.95;;;12.95;79.45
67373;BME280;54257;54.496;18.412;2022-07-10T02:08:44;99466.18;;;12.95;79.12
67373;BME280;54257;54.496;18.412;2022-07-10T02:11:11;99465.33;;;12.98;79.18
67373;BME280;54257;54.496;18.412;2022-07-10T02:13:40;99466.35;;;12.99;79.33
67373;BME280;54257;54.496;18.412;2022-07-10T02:16:07;99463.61;;;12.97;79.89
67373;BME280;54257;54.496;18.412;2022-07-10T02:18:34;99458.98;;;12.91;80.50
67373;BME280;54257;54.496;18.412;2022-07-10T02:21:02;99460.71;;;12.87;80.21
67373;BME280;54257;54.496;18.412;2022-07-10T02:23:29;99459.84;;;12.84;80.27
67373;BME280;54257;54.496;18.412;2022-07-10T02:25:56;99457.45;;;12.82;80.29
67373;BME280;54257;54.496;18.412;2022-07-10T02:28:23;99460.88;;;12.82;80.82
67373;BME280;54257;54.496;18.412;2022-07-10T02:30:50;99457.45;;;12.79;81.16
67373;BME280;54257;54.496;18.412;2022-07-10T02:33:18;99449.73;;;12.76;81.68
67373;BME280;54257;54.496;18.412;2022-07-10T02:35:46;99447.34;;;12.74;81.65
67373;BME280;54257;54.496;18.412;2022-07-10T02:38:14;99444.27;;;12.71;82.11
67373;BME280;54257;54.496;18.412;2022-07-10T02:40:41;99441.17;;;12.70;82.28
67373;BME280;54257;54.496;18.412;2022-07-10T02:43:08;99446.30;;;12.69;82.10
67373;BME280;54257;54.496;18.412;2022-07-10T02:45:36;99441.67;;;12.69;82.29
67373;BME280;54257;54.496;18.412;2022-07-10T02:48:04;99444.77;;;12.70;82.16
67373;BME280;54257;54.496;18.412;2022-07-10T02:50:32;99440.48;;;12.70;82.39
67373;BME280;54257;54.496;18.412;2022-07-10T02:52:59;99438.41;;;12.70;82.31
67373;BME280;54257;54.496;18.412;2022-07-10T02:55:27;99436.71;;;12.70;82.56
67373;BME280;54257;54.496;18.412;2022-07-10T02:57:54;99430.20;;;12.69;82.45
67373;BME280;54257;54.496;18.412;2022-07-10T03:00:23;99426.28;;;12.71;82.36
67373;BME280;54257;54.496;18.412;2022-07-10T03:02:50;99422.67;;;12.72;82.45
67373;BME280;54257;54.496;18.412;2022-07-10T03:05:17;99418.90;;;12.72;82.24
67373;BME280;54257;54.496;18.412;2022-07-10T03:07:44;99420.44;;;12.73;81.69
67373;BME280;54257;54.496;18.412;2022-07-10T03:10:13;99427.63;;;12.75;81.78
67373;BME280;54257;54.496;18.412;2022-07-10T03:12:41;99424.56;;;12.72;81.84
67373;BME280;54257;54.496;18.412;2022-07-10T03:15:09;99420.79;;;12.71;82.59
67373;BME280;54257;54.496;18.412;2022-07-10T03:17:36;99424.55;;;12.68;82.54
67373;BME280;54257;54.496;18.412;2022-07-10T03:20:04;99422.84;;;12.66;82.85
67373;BME280;54257;54.496;18.412;2022-07-10T03:22:32;99426.44;;;12.66;82.86
67373;BME280;54257;54.496;18.412;2022-07-10T03:24:59;99427.12;;;12.68;82.67
67373;BME280;54257;54.496;18.412;2022-07-10T03:27:26;99431.58;;;12.72;82.78
67373;BME280;54257;54.496;18.412;2022-07-10T03:29:54;99434.83;;;12.75;82.93
67373;BME280;54257;54.496;18.412;2022-07-10T03:32:22;99437.58;;;12.79;82.52
67373;BME280;54257;54.496;18.412;2022-07-10T03:34:49;99440.13;;;12.84;82.49
67373;BME280;54257;54.496;18.412;2022-07-10T03:37:16;99436.54;;;12.88;82.42
67373;BME280;54257;54.496;18.412;2022-07-10T03:39:44;99437.03;;;12.93;82.17
67373;BME280;54257;54.496;18.412;2022-07-10T03:42:12;99432.92;;;12.97;82.16
67373;BME280;54257;54.496;18.412;2022-07-10T03:44:39;99427.92;;;13.01;82.32
67373;BME280;54257;54.496;18.412;2022-07-10T03:47:07;99425.02;;;13.04;82.11
67373;BME280;54257;54.496;18.412;2022-07-10T03:49:35;99420.05;;;13.06;82.32
67373;BME280;54257;54.496;18.412;2022-07-10T03:52:02;99421.41;;;13.07;81.95
67373;BME280;54257;54.496;18.412;2022-07-10T03:54:31;99419.38;;;13.04;81.96
67373;BME280;54257;54.496;18.412;2022-07-10T03:56:58;99426.21;;;13.04;81.72
67373;BME280;54257;54.496;18.412;2022-07-10T03:59:44;99422.77;;;13.07;81.66
67373;BME280;54257;54.496;18.412;2022-07-10T04:02:11;99416.60;;;13.11;81.72
67373;BME280;54257;54.496;18.412;2022-07-10T04:04:38;99416.25;;;13.14;81.86
67373;BME280;54257;54.496;18.412;2022-07-10T04:07:05;99415.21;;;13.16;81.48
67373;BME280;54257;54.496;18.412;2022-07-10T04:09:32;99413.33;;;13.18;81.61
67373;BME280;54257;54.496;18.412;2022-07-10T04:12:00;99417.13;;;13.19;81.43
67373;BME280;54257;54.496;18.412;2022-07-10T04:14:28;99420.20;;;13.21;81.40
67373;BME280;54257;54.496;18.412;2022-07-10T04:16:55;99417.96;;;13.24;81.23
67373;BME280;54257;54.496;18.412;2022-07-10T04:19:23;99418.13;;;13.27;81.34
67373;BME280;54257;54.496;18.412;2022-07-10T04:21:50;99408.35;;;13.29;81.46
67373;BME280;54257;54.496;18.412;2022-07-10T04:24:17;99405.76;;;13.32;81.44
67373;BME280;54257;54.496;18.412;2022-07-10T04:26:44;99406.26;;;13.35;81.39
67373;BME280;54257;54.496;18.412;2022-07-10T04:29:11;99404.73;;;13.38;81.51
67373;BME280;54257;54.496;18.412;2022-07-10T04:31:40;99409.16;;;13.43;81.48
67373;BME280;54257;54.496;18.412;2022-07-10T04:34:07;99409.80;;;13.49;81.50
67373;BME280;54257;54.496;18.412;2022-07-10T04:36:35;99407.39;;;13.55;81.52
67373;BME280;54257;54.496;18.412;2022-07-10T04:39:02;99408.38;;;13.62;81.51
67373;BME280;54257;54.496;18.412;2022-07-10T04:41:29;99406.64;;;13.66;81.44
67373;BME280;54257;54.496;18.412;2022-07-10T04:43:57;99406.12;;;13.66;81.16
67373;BME280;54257;54.496;18.412;2022-07-10T04:46:24;99405.45;;;13.64;81.21
67373;BME280;54257;54.496;18.412;2022-07-10T04:48:51;99401.35;;;13.61;81.18
67373;BME280;54257;54.496;18.412;2022-07-10T04:51:19;99406.67;;;13.59;81.17
67373;BME280;54257;54.496;18.412;2022-07-10T04:53:46;99405.99;;;13.60;81.38
67373;BME280;54257;54.496;18.412;2022-07-10T04:56:13;99404.78;;;13.60;81.46
67373;BME280;54257;54.496;18.412;2022-07-10T04:58:41;99398.10;;;13.59;81.92
67373;BME280;54257;54.496;18.412;2022-07-10T05:01:08;99402.89;;;13.61;81.94
67373;BME280;54257;54.496;18.412;2022-07-10T05:03:35;99402.02;;;13.65;82.08
67373;BME280;54257;54.496;18.412;2022-07-10T05:06:02;99397.36;;;13.70;82.25
67373;BME280;54257;54.496;18.412;2022-07-10T05:08:29;99404.38;;;13.75;82.41
67373;BME280;54257;54.496;18.412;2022-07-10T05:10:57;99407.77;;;13.80;82.08
67373;BME280;54257;54.496;18.412;2022-07-10T05:13:24;99409.45;;;13.88;81.96
67373;BME280;54257;54.496;18.412;2022-07-10T05:15:52;99407.37;;;13.90;81.64
67373;BME280;54257;54.496;18.412;2022-07-10T05:18:20;99412.15;;;13.92;81.47
67373;BME280;54257;54.496;18.412;2022-07-10T05:20:48;99412.84;;;13.96;81.47
67373;BME280;54257;54.496;18.412;2022-07-10T05:23:16;99416.08;;;14.00;81.23
67373;BME280;54257;54.496;18.412;2022-07-10T05:25:44;99417.77;;;14.03;81.04
67373;BME280;54257;54.496;18.412;2022-07-10T05:28:11;99419.80;;;14.06;80.97
67373;BME280;54257;54.496;18.412;2022-07-10T05:30:42;99420.64;;;14.12;80.95
67373;BME280;54257;54.496;18.412;2022-07-10T05:33:09;99421.59;;;14.20;81.09
67373;BME280;54257;54.496;18.412;2022-07-10T05:35:37;99420.50;;;14.30;81.03
67373;BME280;54257;54.496;18.412;2022-07-10T05:38:04;99414.75;;;14.40;80.97
67373;BME280;54257;54.496;18.412;2022-07-10T05:40:31;99411.61;;;14.50;81.08
67373;BME280;54257;54.496;18.412;2022-07-10T05:42:59;99412.91;;;14.61;81.00
67373;BME280;54257;54.496;18.412;2022-07-10T05:45:27;99408.89;;;14.67;80.73
67373;BME280;54257;54.496;18.412;2022-07-10T05:47:55;99411.57;;;14.75;80.74
67373;BME280;54257;54.496;18.412;2022-07-10T05:50:23;99415.09;;;14.84;80.71
67373;BME280;54257;54.496;18.412;2022-07-10T05:52:50;99413.45;;;14.94;80.52
67373;BME280;54257;54.496;18.412;2022-07-10T05:55:17;99419.77;;;14.99;80.10
67373;BME280;54257;54.496;18.412;2022-07-10T05:57:44;99420.55;;;15.06;80.03
67373;BME280;54257;54.496;18.412;2022-07-10T06:00:12;99423.09;;;15.25;80.77
67373;BME280;54257;54.496;18.412;2022-07-10T06:02:39;99423.38;;;15.46;80.24
67373;BME280;54257;54.496;18.412;2022-07-10T06:05:08;99422.09;;;15.67;80.05
67373;BME280;54257;54.496;18.412;2022-07-10T06:07:36;99423.67;;;15.91;79.93
67373;BME280;54257;54.496;18.412;2022-07-10T06:10:04;99424.80;;;16.10;78.68
67373;BME280;54257;54.496;18.412;2022-07-10T06:12:32;99425.66;;;16.22;77.96
67373;BME280;54257;54.496;18.412;2022-07-10T06:14:59;99425.55;;;16.28;77.62
67373;BME280;54257;54.496;18.412;2022-07-10T06:17:27;99425.77;;;16.25;76.57
67373;BME280;54257;54.496;18.412;2022-07-10T06:19:54;99423.36;;;16.24;76.40
67373;BME280;54257;54.496;18.412;2022-07-10T06:22:21;99426.10;;;16.37;76.60
67373;BME280;54257;54.496;18.412;2022-07-10T06:25:02;99418.77;;;16.65;76.89
67373;BME280;54257;54.496;18.412;2022-07-10T06:27:30;99409.02;;;16.90;76.14
67373;BME280;54257;54.496;18.412;2022-07-10T06:29:58;99409.81;;;17.13;75.47
67373;BME280;54257;54.496;18.412;2022-07-10T06:32:27;99412.30;;;17.27;74.11
67373;BME280;54257;54.496;18.412;2022-07-10T06:34:56;99416.08;;;17.37;72.82
67373;BME280;54257;54.496;18.412;2022-07-10T06:37:23;99415.21;;;17.45;73.24
67373;BME280;54257;54.496;18.412;2022-07-10T06:39:51;99414.86;;;17.62;72.78
67373;BME280;54257;54.496;18.412;2022-07-10T06:42:18;99419.08;;;17.67;72.68
67373;BME280;54257;54.496;18.412;2022-07-10T06:44:45;99418.08;;;17.75;72.42
67373;BME280;54257;54.496;18.412;2022-07-10T06:47:16;99415.86;;;17.74;71.39
67373;BME280;54257;54.496;18.412;2022-07-10T06:50:05;99410.38;;;17.71;71.54
67373;BME280;54257;54.496;18.412;2022-07-10T06:52:36;99410.40;;;17.71;71.21
67373;BME280;54257;54.496;18.412;2022-07-10T06:55:05;99411.40;;;17.80;71.08
67373;BME280;54257;54.496;18.412;2022-07-10T06:57:32;99407.66;;;17.85;70.52
67373;BME280;54257;54.496;18.412;2022-07-10T07:00:01;99409.34;;;18.10;71.36
67373;BME280;54257;54.496;18.412;2022-07-10T07:02:28;99408.81;;;18.26;69.73
67373;BME280;54257;54.496;18.412;2022-07-10T07:04:56;99406.95;;;18.32;69.12
67373;BME280;54257;54.496;18.412;2022-07-10T07:07:23;99411.92;;;18.33;68.78
67373;BME280;54257;54.496;18.412;2022-07-10T07:09:51;99414.85;;;18.33;68.83
67373;BME280;54257;54.496;18.412;2022-07-10T07:12:19;99414.53;;;18.39;69.05
67373;BME280;54257;54.496;18.412;2022-07-10T07:14:46;99411.11;;;18.38;68.20
67373;BME280;54257;54.496;18.412;2022-07-10T07:17:14;99414.04;;;18.31;68.24
67373;BME280;54257;54.496;18.412;2022-07-10T07:19:48;99416.21;;;18.28;68.38
67373;BME280;54257;54.496;18.412;2022-07-10T07:22:34;99417.09;;;18.34;68.62
67373;BME280;54257;54.496;18.412;2022-07-10T07:25:21;99415.75;;;18.33;68.12
67373;BME280;54257;54.496;18.412;2022-07-10T07:27:48;99414.05;;;18.31;68.56
67373;BME280;54257;54.496;18.412;2022-07-10T07:30:15;99410.31;;;18.28;68.74
67373;BME280;54257;54.496;18.412;2022-07-10T07:32:45;99414.55;;;18.31;69.04
67373;BME280;54257;54.496;18.412;2022-07-10T07:35:14;99415.59;;;18.32;69.33
67373;BME280;54257;54.496;18.412;2022-07-10T07:40:12;99412.84;;;18.01;69.56
67373;BME280;54257;54.496;18.412;2022-07-10T07:42:40;99414.20;;;17.78;69.26
67373;BME280;54257;54.496;18.412;2022-07-10T07:45:10;99409.46;;;17.39;69.68
67373;BME280;54257;54.496;18.412;2022-07-10T07:47:53;99400.52;;;17.02;71.04
67373;BME280;54257;54.496;18.412;2022-07-10T07:50:29;99409.95;;;16.56;72.81
67373;BME280;54257;54.496;18.412;2022-07-10T07:53:04;99424.19;;;16.27;73.78
67373;BME280;54257;54.496;18.412;2022-07-10T07:55:33;99427.36;;;16.11;74.01
67373;BME280;54257;54.496;18.412;2022-07-10T07:58:03;99435.55;;;16.04;74.56
67373;BME280;54257;54.496;18.412;2022-07-10T08:00:38;99431.30;;;16.00;74.70
67373;BME280;54257;54.496;18.412;2022-07-10T08:03:07;99429.30;;;15.96;75.07
67373;BME280;54257;54.496;18.412;2022-07-10T08:05:35;99433.45;;;16.07;75.64
67373;BME280;54257;54.496;18.412;2022-07-10T08:08:03;99434.68;;;16.28;76.28
67373;BME280;54257;54.496;18.412;2022-07-10T08:10:37;99432.74;;;16.53;76.48
67373;BME280;54257;54.496;18.412;2022-07-10T08:13:04;99427.30;;;16.82;76.55
67373;BME280;54257;54.496;18.412;2022-07-10T08:15:33;99420.85;;;17.13;76.26
67373;BME280;54257;54.496;18.412;2022-07-10T08:18:02;99427.20;;;17.41;75.66
67373;BME280;54257;54.496;18.412;2022-07-10T08:20:33;99420.40;;;17.71;75.65
67373;BME280;54257;54.496;18.412;2022-07-10T08:23:03;99420.84;;;18.07;74.84
67373;BME280;54257;54.496;18.412;2022-07-10T08:25:30;99415.91;;;18.25;73.27
67373;BME280;54257;54.496;18.412;2022-07-10T08:28:02;99413.02;;;18.38;73.03
67373;BME280;54257;54.496;18.412;2022-07-10T08:30:30;99407.25;;;18.62;73.23
67373;BME280;54257;54.496;18.412;2022-07-10T08:32:57;99411.63;;;18.94;72.26
67373;BME280;54257;54.496;18.412;2022-07-10T08:35:26;99410.28;;;19.12;70.89
67373;BME280;54257;54.496;18.412;2022-07-10T08:37:57;99409.14;;;19.28;70.70
67373;BME280;54257;54.496;18.412;2022-07-10T08:40:35;99410.39;;;19.52;69.52
67373;BME280;54257;54.496;18.412;2022-07-10T08:43:08;99414.18;;;19.77;69.29
67373;BME280;54257;54.496;18.412;2022-07-10T08:45:37;99411.04;;;19.90;67.81
67373;BME280;54257;54.496;18.412;2022-07-10T08:48:09;99413.61;;;19.90;66.01
67373;BME280;54257;54.496;18.412;2022-07-10T08:50:45;99419.85;;;20.12;66.62
67373;BME280;54257;54.496;18.412;2022-07-10T08:53:31;99422.66;;;20.23;64.88
67373;BME280;54257;54.496;18.412;2022-07-10T08:56:05;99422.35;;;20.59;65.96
67373;BME280;54257;54.496;18.412;2022-07-10T08:58:33;99416.31;;;21.00;62.79
67373;BME280;54257;54.496;18.412;2022-07-10T09:01:02;99417.51;;;21.25;61.99
67373;BME280;54257;54.496;18.412;2022-07-10T09:03:30;99420.00;;;21.48;60.43
67373;BME280;54257;54.496;18.412;2022-07-10T09:05:59;99423.81;;;21.43;60.07
67373;BME280;54257;54.496;18.412;2022-07-10T09:08:28;99427.23;;;21.40;60.44
67373;BME280;54257;54.496;18.412;2022-07-10T09:11:18;99432.30;;;21.44;59.16
67373;BME280;54257;54.496;18.412;2022-07-10T09:14:01;99428.81;;;21.63;57.86
67373;BME280;54257;54.496;18.412;2022-07-10T09:16:34;99430.34;;;21.64;56.77
67373;BME280;54257;54.496;18.412;2022-07-10T09:19:26;99423.50;;;21.71;56.64
67373;BME280;54257;54.496;18.412;2022-07-10T09:22:09;99422.74;;;21.72;55.14
67373;BME280;54257;54.496;18.412;2022-07-10T09:24:45;99425.15;;;21.50;54.24
67373;BME280;54257;54.496;18.412;2022-07-10T09:27:14;99421.27;;;21.56;54.37
67373;BME280;54257;54.496;18.412;2022-07-10T09:29:50;99424.50;;;21.81;53.90
67373;BME280;54257;54.496;18.412;2022-07-10T09:32:31;99425.89;;;22.17;53.58
67373;BME280;54257;54.496;18.412;2022-07-10T09:35:03;99427.05;;;22.53;51.67
67373;BME280;54257;54.496;18.412;2022-07-10T09:37:52;99430.27;;;22.43;51.07
67373;BME280;54257;54.496;18.412;2022-07-10T09:40:30;99434.04;;;22.48;51.01
67373;BME280;54257;54.496;18.412;2022-07-10T09:43:03;99428.64;;;22.86;51.39
67373;BME280;54257;54.496;18.412;2022-07-10T09:45:45;99418.33;;;23.04;50.17
67373;BME280;54257;54.496;18.412;2022-07-10T09:48:32;99425.52;;;23.11;48.29
67373;BME280;54257;54.496;18.412;2022-07-10T09:51:18;99430.34;;;23.24;46.66
67373;BME280;54257;54.496;18.412;2022-07-10T09:53:56;99432.28;;;23.39;46.94
67373;BME280;54257;54.496;18.412;2022-07-10T09:59:18;99433.69;;;23.70;47.83
67373;BME280;54257;54.496;18.412;2022-07-10T10:01:51;99438.63;;;23.81;46.91
67373;BME280;54257;54.496;18.412;2022-07-10T10:04:21;99440.25;;;23.91;46.79
67373;BME280;54257;54.496;18.412;2022-07-10T10:06:53;99441.36;;;24.12;45.68
67373;BME280;54257;54.496;18.412;2022-07-10T10:09:34;99447.48;;;24.30;44.90
67373;BME280;54257;54.496;18.412;2022-07-10T10:12:37;99454.48;;;24.63;43.97
67373;BME280;54257;54.496;18.412;2022-07-10T10:15:10;99452.97;;;24.86;42.76
67373;BME280;54257;54.496;18.412;2022-07-10T10:17:40;99455.42;;;24.93;42.37
67373;BME280;54257;54.496;18.412;2022-07-10T10:20:11;99460.76;;;24.94;42.31
67373;BME280;54257;54.496;18.412;2022-07-10T10:23:04;99462.56;;;25.00;41.89
67373;BME280;54257;54.496;18.412;2022-07-10T10:25:33;99457.03;;;25.30;42.80
67373;BME280;54257;54.496;18.412;2022-07-10T10:28:06;99460.93;;;25.52;41.51
67373;BME280;54257;54.496;18.412;2022-07-10T10:30:44;99456.70;;;25.19;40.62
67373;BME280;54257;54.496;18.412;2022-07-10T10:36:13;99473.34;;;24.80;41.29
67373;BME280;54257;54.496;18.412;2022-07-10T10:41:39;99472.02;;;24.54;41.82
67373;BME280;54257;54.496;18.412;2022-07-10T10:49:51;99472.92;;;23.39;42.68
67373;BME280;54257;54.496;18.412;2022-07-10T10:52:20;99474.81;;;23.16;43.83
67373;BME280;54257;54.496;18.412;2022-07-10T10:57:46;99474.53;;;22.76;46.27
67373;BME280;54257;54.496;18.412;2022-07-10T11:01:22;99480.02;;;22.52;46.38
67373;BME280;54257;54.496;18.412;2022-07-10T11:06:54;99474.05;;;22.23;47.41
67373;BME280;54257;54.496;18.412;2022-07-10T11:09:28;99480.42;;;22.25;47.71
67373;BME280;54257;54.496;18.412;2022-07-10T11:12:07;99484.09;;;22.24;47.53
67373;BME280;54257;54.496;18.412;2022-07-10T11:14:47;99482.20;;;22.15;47.43
67373;BME280;54257;54.496;18.412;2022-07-10T11:17:27;99486.23;;;22.00;46.21
67373;BME280;54257;54.496;18.412;2022-07-10T11:19:58;99483.86;;;21.89;46.02
67373;BME280;54257;54.496;18.412;2022-07-10T11:25:50;99471.04;;;22.42;47.03
67373;BME280;54257;54.496;18.412;2022-07-10T11:28:48;99472.37;;;22.48;46.60
67373;BME280;54257;54.496;18.412;2022-07-10T11:31:20;99467.13;;;22.57;46.30
67373;BME280;54257;54.496;18.412;2022-07-10T11:33:52;99470.06;;;22.49;46.25
67373;BME280;54257;54.496;18.412;2022-07-10T11:36:23;99471.23;;;22.28;45.88
67373;BME280;54257;54.496;18.412;2022-07-10T11:39:04;99473.70;;;22.09;45.99
67373;BME280;54257;54.496;18.412;2022-07-10T11:41:32;99475.09;;;22.32;47.10
67373;BME280;54257;54.496;18.412;2022-07-10T11:44:03;99467.53;;;22.73;46.04
67373;BME280;54257;54.496;18.412;2022-07-10T11:46:34;99473.52;;;23.17;44.20
67373;BME280;54257;54.496;18.412;2022-07-10T11:49:05;99468.65;;;23.49;42.12
67373;BME280;54257;54.496;18.412;2022-07-10T11:51:37;99473.55;;;23.80;40.22
67373;BME280;54257;54.496;18.412;2022-07-10T11:54:13;99471.95;;;24.00;40.52
67373;BME280;54257;54.496;18.412;2022-07-10T11:56:48;99475.56;;;24.20;41.08
67373;BME280;54257;54.496;18.412;2022-07-10T11:59:18;99477.55;;;24.10;39.23
67373;BME280;54257;54.496;18.412;2022-07-10T12:01:51;99476.63;;;24.08;38.85
67373;BME280;54257;54.496;18.412;2022-07-10T12:04:20;99479.99;;;24.33;41.07
67373;BME280;54257;54.496;18.412;2022-07-10T12:06:54;99484.02;;;24.55;39.64
67373;BME280;54257;54.496;18.412;2022-07-10T12:09:26;99484.46;;;24.71;39.74
67373;BME280;54257;54.496;18.412;2022-07-10T12:12:04;99481.16;;;24.63;39.26
67373;BME280;54257;54.496;18.412;2022-07-10T12:14:35;99488.73;;;24.25;38.97
67373;BME280;54257;54.496;18.412;2022-07-10T12:17:11;99487.61;;;24.04;39.63
67373;BME280;54257;54.496;18.412;2022-07-10T12:19:40;99482.17;;;24.16;39.97
67373;BME280;54257;54.496;18.412;2022-07-10T12:22:07;99487.37;;;23.95;41.37
67373;BME280;54257;54.496;18.412;2022-07-10T12:24:37;99486.19;;;23.51;43.17
67373;BME280;54257;54.496;18.412;2022-07-10T12:27:06;99492.15;;;23.10;45.09
67373;BME280;54257;54.496;18.412;2022-07-10T12:29:39;99501.55;;;22.80;46.59
67373;BME280;54257;54.496;18.412;2022-07-10T12:32:10;99508.98;;;22.55;46.90
67373;BME280;54257;54.496;18.412;2022-07-10T12:34:52;99503.79;;;22.32;47.74
67373;BME280;54257;54.496;18.412;2022-07-10T12:37:26;99510.05;;;22.19;47.90
67373;BME280;54257;54.496;18.412;2022-07-10T12:39:54;99514.63;;;22.08;48.35
67373;BME280;54257;54.496;18.412;2022-07-10T12:42:25;99519.19;;;21.93;48.55
67373;BME280;54257;54.496;18.412;2022-07-10T12:47:44;99521.35;;;21.67;48.70
67373;BME280;54257;54.496;18.412;2022-07-10T12:50:16;99519.40;;;21.53;49.03
67373;BME280;54257;54.496;18.412;2022-07-10T12:53:11;99517.36;;;21.37;48.88
67373;BME280;54257;54.496;18.412;2022-07-10T12:55:39;99522.38;;;21.33;48.99
67373;BME280;54257;54.496;18.412;2022-07-10T12:58:09;99516.81;;;21.43;48.73
67373;BME280;54257;54.496;18.412;2022-07-10T13:00:45;99512.58;;;21.40;48.18
67373;BME280;54257;54.496;18.412;2022-07-10T13:03:19;99521.09;;;21.35;48.76
67373;BME280;54257;54.496;18.412;2022-07-10T13:05:49;99519.20;;;21.49;48.31
67373;BME280;54257;54.496;18.412;2022-07-10T13:08:21;99516.48;;;21.47;48.17
67373;BME280;54257;54.496;18.412;2022-07-10T13:10:53;99515.29;;;21.66;48.71
67373;BME280;54257;54.496;18.412;2022-07-10T13:13:22;99517.34;;;21.96;47.58
67373;BME280;54257;54.496;18.412;2022-07-10T13:15:51;99519.14;;;22.09;47.08
67373;BME280;54257;54.496;18.412;2022-07-10T13:18:29;99523.59;;;22.05;46.88
67373;BME280;54257;54.496;18.412;2022-07-10T13:20:57;99527.79;;;22.00;47.68
67373;BME280;54257;54.496;18.412;2022-07-10T13:23:29;99524.04;;;22.21;48.54
67373;BME280;54257;54.496;18.412;2022-07-10T13:25:59;99523.79;;;22.55;47.81
67373;BME280;54257;54.496;18.412;2022-07-10T13:28:30;99523.65;;;22.81;46.54
67373;BME280;54257;54.496;18.412;2022-07-10T13:31:01;99522.23;;;22.81;45.60
67373;BME280;54257;54.496;18.412;2022-07-10T13:33:29;99526.98;;;22.67;44.09
67373;BME280;54257;54.496;18.412;2022-07-10T13:36:07;99522.44;;;22.63;44.57
67373;BME280;54257;54.496;18.412;2022-07-10T13:38:39;99525.61;;;22.83;44.17